createdAt,value
2022-10-25T00:02:23.828Z,75.92
2022-10-25T00:04:51.395Z,75.84
2022-10-25T00:07:18.855Z,75.56
2022-10-25T00:09:46.138Z,74.99
2022-10-25T00:12:14.203Z,75.82
2022-10-25T00:14:41.460Z,75.60
2022-10-25T00:17:09.388Z,75.46
2022-10-25T00:19:36.783Z,75.34
2022-10-25T00:22:04.033Z,75.05
2022-10-25T00:24:31.391Z,74.96
2022-10-25T00:26:59.465Z,75.38
2022-10-25T00:29:26.915Z,75.48
2022-10-25T00:31:54.257Z,74.96
2022-10-25T00:34:22.552Z,75.56
2022-10-25T00:36:49.890Z,75.20
2022-10-25T00:39:17.296Z,75.59
2022-10-25T00:41:44.660Z,74.92
2022-10-25T00:44:36.851Z,75.70
2022-10-25T00:47:44.871Z,75.63
2022-10-25T00:50:52.211Z,75.14
2022-10-25T00:53:34.805Z,75.49
2022-10-25T00:56:21.863Z,75.63
2022-10-25T00:58:58.564Z,76.12
2022-10-25T01:01:26.492Z,75.48
2022-10-25T01:04:01.238Z,75.22
2022-10-25T01:07:02.346Z,75.23
2022-10-25T01:09:36.157Z,75.41
2022-10-25T01:12:04.324Z,76.04
2022-10-25T01:14:34.972Z,75.10
2022-10-25T01:17:42.979Z,74.91
2022-10-25T01:21:07.338Z,75.41
2022-10-25T01:23:52.547Z,75.68
2022-10-25T01:27:18.840Z,74.78
2022-10-25T01:30:31.319Z,75.38
2022-10-25T01:33:40.305Z,75.71
2022-10-25T01:37:18.611Z,75.95
2022-10-25T01:40:42.448Z,76.10
2022-10-25T01:44:02.814Z,76.31
2022-10-25T01:46:47.249Z,75.91
2022-10-25T01:49:56.612Z,75.59
2022-10-25T01:52:25.594Z,75.63
2022-10-25T01:54:52.960Z,76.23
2022-10-25T01:57:49.537Z,76.27
2022-10-25T02:00:23.591Z,76.14
2022-10-25T02:03:33.903Z,76.14
2022-10-25T02:06:57.717Z,76.30
2022-10-25T02:10:01.185Z,76.28
2022-10-25T02:13:07.523Z,76.08
2022-10-25T02:16:04.738Z,76.94
2022-10-25T02:18:41.361Z,76.59
2022-10-25T02:21:12.533Z,76.44
2022-10-25T02:23:40.993Z,76.82
2022-10-25T02:26:10.946Z,76.59
2022-10-25T02:28:42.115Z,76.16
2022-10-25T02:31:17.400Z,76.79
2022-10-25T02:33:47.684Z,77.40
2022-10-25T02:36:24.144Z,77.02
2022-10-25T02:38:53.532Z,77.60
2022-10-25T02:41:22.921Z,77.00
2022-10-25T02:43:50.208Z,77.32
2022-10-25T02:46:23.041Z,77.25
2022-10-25T02:48:51.892Z,76.87
2022-10-25T02:51:19.570Z,77.34
2022-10-25T02:53:48.344Z,76.86
2022-10-25T02:56:22.699Z,77.18
2022-10-25T02:58:55.333Z,77.59
2022-10-25T03:01:23.358Z,77.95
2022-10-25T03:03:51.219Z,77.03
2022-10-25T03:06:18.729Z,77.46
2022-10-25T03:08:46.366Z,77.26
2022-10-25T03:11:16.931Z,77.03
2022-10-25T03:13:50.099Z,77.23
2022-10-25T03:16:17.376Z,77.24
2022-10-25T03:18:44.772Z,77.12
2022-10-25T03:21:12.836Z,77.34
2022-10-25T03:23:40.097Z,76.96
2022-10-25T03:26:07.424Z,77.37
2022-10-25T03:28:34.710Z,77.85
2022-10-25T03:31:02.034Z,77.36
2022-10-25T03:36:17.694Z,77.72
2022-10-25T03:38:45.143Z,77.60
2022-10-25T03:41:12.531Z,78.20
2022-10-25T03:43:39.861Z,78.70
2022-10-25T03:46:07.483Z,78.90
2022-10-25T03:48:34.979Z,78.59
2022-10-25T03:51:02.224Z,79.01
2022-10-25T03:53:29.512Z,78.35
2022-10-25T03:55:56.827Z,78.80
2022-10-25T03:58:24.111Z,78.61
2022-10-25T04:00:51.462Z,79.20
2022-10-25T04:03:18.764Z,78.42
2022-10-25T04:05:46.024Z,78.14
2022-10-25T04:08:13.404Z,78.48
2022-10-25T04:10:40.701Z,79.42
2022-10-25T04:13:08.084Z,79.14
2022-10-25T04:15:37.108Z,79.16
2022-10-25T04:18:04.474Z,80.21
2022-10-25T04:20:33.070Z,80.29
2022-10-25T04:23:00.381Z,80.17
2022-10-25T04:25:29.099Z,80.49
2022-10-25T04:28:00.430Z,79.38
2022-10-25T04:30:27.758Z,79.33
2022-10-25T04:32:56.553Z,79.85
2022-10-25T04:35:24.969Z,80.07
2022-10-25T04:37:52.873Z,79.88
2022-10-25T04:40:23.952Z,79.67
2022-10-25T04:42:52.226Z,80.38
2022-10-25T04:45:19.584Z,79.99
2022-10-25T04:47:47.009Z,80.48
2022-10-25T04:50:14.438Z,80.27
2022-10-25T04:52:41.735Z,80.29
2022-10-25T04:55:09.437Z,80.09
2022-10-25T04:57:36.780Z,80.24
2022-10-25T05:00:05.448Z,79.94
2022-10-25T05:02:32.788Z,80.08
2022-10-25T05:05:00.127Z,79.74
2022-10-25T05:07:27.424Z,79.95
2022-10-25T05:09:54.952Z,79.95
2022-10-25T05:12:23.912Z,79.83
2022-10-25T05:14:51.170Z,80.91
2022-10-25T05:17:20.337Z,80.30
2022-10-25T05:19:47.612Z,80.24
2022-10-25T05:22:15.019Z,80.39
2022-10-25T05:24:42.288Z,80.13
2022-10-25T05:27:09.575Z,79.72
2022-10-25T05:29:36.881Z,80.06
2022-10-25T05:32:04.247Z,79.82
2022-10-25T05:34:31.508Z,79.24
2022-10-25T05:36:59.008Z,79.62
2022-10-25T05:39:26.611Z,79.25
2022-10-25T05:41:54.733Z,79.21
2022-10-25T05:44:22.100Z,79.84
2022-10-25T05:46:49.482Z,79.62
2022-10-25T05:49:17.581Z,80.15
2022-10-25T05:51:44.848Z,80.42
2022-10-25T05:54:15.937Z,79.97
2022-10-25T05:56:43.785Z,81.03
2022-10-25T05:59:15.084Z,80.60
2022-10-25T06:01:46.585Z,81.36
2022-10-25T06:04:15.698Z,80.99
2022-10-25T06:06:46.877Z,80.91
2022-10-25T06:09:14.853Z,80.92
2022-10-25T06:11:42.152Z,80.46
2022-10-25T06:14:11.158Z,80.25
2022-10-25T06:16:39.040Z,81.09
2022-10-25T06:19:10.020Z,80.68
2022-10-25T06:21:37.668Z,80.86
2022-10-25T06:24:05.501Z,80.94
2022-10-25T06:26:33.059Z,80.87
2022-10-25T06:29:05.996Z,80.41
2022-10-25T06:31:33.940Z,80.74
2022-10-25T06:34:02.917Z,79.89
2022-10-25T06:36:31.783Z,79.87
2022-10-25T06:39:05.608Z,80.52
2022-10-25T06:41:37.138Z,80.58
2022-10-25T06:44:07.134Z,80.56
2022-10-25T06:49:27.297Z,80.21
2022-10-25T06:51:55.556Z,80.33
2022-10-25T06:54:22.895Z,79.85
2022-10-25T06:56:50.181Z,79.58
2022-10-25T06:59:17.937Z,79.76
2022-10-25T07:01:45.311Z,79.66
2022-10-25T07:04:13.206Z,79.59
2022-10-25T07:06:41.279Z,79.62
2022-10-25T07:09:10.202Z,79.56
2022-10-25T07:11:38.240Z,79.34
2022-10-25T07:14:09.483Z,79.21
2022-10-25T07:16:39.856Z,79.25
2022-10-25T07:19:10.086Z,79.17
2022-10-25T07:21:45.108Z,78.95
2022-10-25T07:24:13.425Z,78.88
2022-10-25T07:26:40.795Z,78.95
2022-10-25T07:29:08.403Z,78.47
2022-10-25T07:31:43.084Z,78.23
2022-10-25T07:34:15.220Z,78.30
2022-10-25T07:36:43.636Z,77.74
2022-10-25T07:39:10.948Z,77.82
2022-10-25T07:41:38.300Z,77.60
2022-10-25T07:44:05.748Z,77.67
2022-10-25T07:46:33.002Z,77.50
2022-10-25T07:49:00.289Z,77.34
2022-10-25T07:51:27.571Z,76.82
2022-10-25T07:53:54.877Z,76.72
2022-10-25T07:56:35.347Z,76.82
2022-10-25T07:59:08.649Z,76.55
2022-10-25T08:01:49.858Z,76.14
2022-10-25T08:04:41.774Z,75.95
2022-10-25T08:07:25.040Z,75.73
2022-10-25T08:10:01.240Z,75.38
2022-10-25T08:12:44.774Z,75.18
2022-10-25T08:15:26.355Z,74.89
2022-10-25T08:18:19.584Z,74.80
2022-10-25T08:21:27.494Z,74.24
2022-10-25T08:24:17.100Z,73.94
2022-10-25T08:27:02.611Z,73.52
2022-10-25T08:29:40.999Z,73.25
2022-10-25T08:35:32.127Z,72.70
2022-10-25T08:38:26.775Z,71.97
2022-10-25T08:41:33.217Z,71.58
2022-10-25T08:44:54.274Z,71.18
2022-10-25T08:47:52.802Z,70.30
2022-10-25T08:50:47.685Z,70.20
2022-10-25T08:53:36.818Z,69.92
2022-10-25T08:56:16.054Z,69.55
2022-10-25T08:59:02.348Z,68.11
2022-10-25T09:01:49.533Z,67.20
2022-10-25T09:04:17.065Z,67.16
2022-10-25T09:07:28.164Z,66.14
2022-10-25T09:10:30.934Z,65.50
2022-10-25T09:13:40.278Z,65.26
2022-10-25T09:17:01.723Z,64.77
2022-10-25T09:20:25.834Z,63.50
2022-10-25T09:23:28.300Z,62.86
2022-10-25T09:26:37.781Z,63.25
2022-10-25T09:29:42.805Z,62.44
2022-10-25T09:32:28.460Z,61.04
2022-10-25T09:34:57.906Z,61.11
2022-10-25T09:38:00.029Z,61.04
2022-10-25T09:40:52.973Z,60.69
2022-10-25T09:43:49.079Z,60.35
2022-10-25T09:46:59.975Z,60.17
2022-10-25T09:49:56.773Z,59.98
2022-10-25T09:53:11.705Z,58.90
2022-10-25T09:56:00.271Z,58.71
2022-10-25T09:58:42.852Z,58.83
2022-10-25T10:01:27.833Z,58.99
2022-10-25T10:04:21.569Z,57.58
2022-10-25T10:06:52.115Z,57.46
2022-10-25T10:09:19.928Z,57.40
2022-10-25T10:11:48.768Z,57.02
2022-10-25T10:15:00.856Z,55.61
2022-10-25T10:17:30.972Z,56.93
2022-10-25T10:20:19.139Z,55.59
2022-10-25T10:22:54.056Z,55.45
2022-10-25T10:25:28.792Z,54.71
2022-10-25T10:27:58.996Z,54.83
2022-10-25T10:30:30.935Z,54.33
2022-10-25T10:33:03.249Z,54.07
2022-10-25T10:35:37.916Z,53.88
2022-10-25T10:38:30.205Z,54.33
2022-10-25T10:41:29.312Z,54.10
2022-10-25T10:44:15.151Z,53.96
2022-10-25T10:46:47.465Z,52.58
2022-10-25T10:49:16.129Z,52.75
2022-10-25T10:51:45.730Z,52.59
2022-10-25T10:54:29.836Z,52.40
2022-10-25T10:57:02.861Z,52.22
2022-10-25T10:59:52.860Z,51.44
2022-10-25T11:02:41.832Z,50.87
2022-10-25T11:05:37.862Z,50.68
2022-10-25T11:08:08.049Z,50.12
2022-10-25T11:10:38.287Z,50.56
2022-10-25T11:13:18.675Z,49.50
2022-10-25T11:16:45.041Z,50.42
2022-10-25T11:19:44.005Z,48.17
2022-10-25T11:23:11.034Z,47.96
2022-10-25T11:26:13.171Z,48.37
2022-10-25T11:29:34.756Z,46.89
2022-10-25T11:32:50.513Z,46.50
2022-10-25T11:36:08.235Z,46.68
2022-10-25T11:39:35.340Z,46.47
2022-10-25T11:42:37.012Z,46.44
2022-10-25T11:45:46.931Z,45.25
2022-10-25T11:49:11.785Z,44.91
2022-10-25T11:52:34.326Z,44.20
2022-10-25T11:56:04.462Z,43.45
2022-10-25T11:59:18.501Z,43.71
2022-10-25T12:02:22.278Z,43.22
2022-10-25T12:05:38.698Z,43.51
2022-10-25T12:08:47.033Z,43.13
2022-10-25T12:11:42.064Z,43.08
2022-10-25T12:14:21.822Z,43.01
2022-10-25T12:16:50.105Z,42.68
2022-10-25T12:19:28.036Z,42.73
2022-10-25T12:22:13.539Z,41.45
2022-10-25T12:25:05.240Z,41.73
2022-10-25T12:27:34.710Z,42.09
2022-10-25T12:30:18.824Z,42.32
2022-10-25T12:33:02.592Z,41.72
2022-10-25T12:35:42.684Z,40.94
2022-10-25T12:38:33.033Z,40.92
2022-10-25T12:41:32.346Z,40.89
2022-10-25T12:45:33.047Z,39.88
2022-10-25T12:48:56.350Z,40.01
2022-10-25T12:51:58.200Z,40.17
2022-10-25T12:55:32.275Z,40.58
2022-10-25T12:58:37.680Z,40.46
2022-10-25T13:01:46.234Z,41.52
2022-10-25T13:05:11.629Z,40.91
2022-10-25T13:07:40.958Z,42.09
2022-10-25T13:10:23.886Z,41.45
2022-10-25T13:13:22.080Z,41.16
2022-10-25T13:16:01.381Z,40.75
2022-10-25T13:18:48.100Z,41.53
2022-10-25T13:21:53.297Z,41.85
2022-10-25T13:24:45.504Z,42.54
2022-10-25T13:27:15.592Z,43.21
2022-10-25T13:30:07.551Z,43.37
2022-10-25T13:32:43.763Z,44.46
2022-10-25T13:35:19.953Z,44.55
2022-10-25T13:38:25.676Z,44.35
2022-10-25T13:41:19.362Z,45.11
2022-10-25T13:44:05.189Z,45.09
2022-10-25T13:46:41.973Z,45.84
2022-10-25T13:49:42.603Z,46.51
2022-10-25T13:52:33.431Z,46.29
2022-10-25T13:55:10.139Z,46.46
2022-10-25T13:57:59.238Z,46.74
2022-10-25T14:00:33.013Z,46.93
2022-10-25T14:03:09.850Z,47.09
2022-10-25T14:05:55.759Z,46.96
2022-10-25T14:08:43.576Z,47.12
2022-10-25T14:11:33.176Z,47.43
2022-10-25T14:14:27.221Z,47.29
2022-10-25T14:17:18.741Z,46.31
2022-10-25T14:19:54.831Z,46.53
2022-10-25T14:22:46.427Z,46.00
2022-10-25T14:25:48.765Z,46.37
2022-10-25T14:28:32.034Z,46.13
2022-10-25T14:31:14.043Z,45.91
2022-10-25T14:33:54.058Z,45.82
2022-10-25T14:36:36.744Z,45.62
2022-10-25T14:39:19.974Z,45.02
2022-10-25T14:42:00.528Z,44.89
2022-10-25T14:44:45.977Z,43.84
2022-10-25T14:47:33.850Z,43.90
2022-10-25T14:50:02.510Z,45.03
2022-10-25T14:52:31.652Z,45.36
2022-10-25T14:55:05.724Z,45.88
2022-10-25T14:57:34.651Z,46.46
2022-10-25T15:00:06.325Z,46.38
2022-10-25T15:02:37.768Z,46.98
2022-10-25T15:05:07.200Z,47.25
2022-10-25T15:07:47.123Z,47.76
2022-10-25T15:10:43.508Z,47.96
2022-10-25T15:13:41.800Z,49.56
2022-10-25T15:16:40.977Z,49.28
2022-10-25T15:19:20.751Z,49.76
2022-10-25T15:22:04.917Z,50.02
2022-10-25T15:24:46.708Z,50.40
2022-10-25T15:27:40.293Z,50.95
2022-10-25T15:30:37.037Z,52.50
2022-10-25T15:33:15.571Z,52.77
2022-10-25T15:35:58.722Z,53.26
2022-10-25T15:39:01.834Z,53.87
2022-10-25T15:41:24.833Z,53.51
2022-10-25T15:43:53.017Z,53.72
2022-10-25T15:46:34.343Z,54.91
2022-10-25T15:49:09.019Z,55.10
2022-10-25T15:51:42.689Z,54.68
2022-10-25T15:54:23.727Z,55.13
2022-10-25T15:56:52.013Z,55.21
2022-10-25T15:59:19.304Z,55.17
2022-10-25T16:01:52.326Z,55.24
2022-10-25T16:04:20.324Z,55.44
2022-10-25T16:06:48.093Z,55.68
2022-10-25T16:09:17.282Z,55.93
2022-10-25T16:11:51.626Z,56.43
2022-10-25T16:14:25.323Z,56.21
2022-10-25T16:16:52.807Z,56.52
2022-10-25T16:19:22.007Z,56.52
2022-10-25T16:21:49.597Z,57.37
2022-10-25T16:24:16.881Z,57.22
2022-10-25T16:26:49.300Z,57.56
2022-10-25T16:29:26.367Z,58.06
2022-10-25T16:31:54.276Z,57.70
2022-10-25T16:34:22.005Z,57.77
2022-10-25T16:36:52.798Z,58.02
2022-10-25T16:39:20.112Z,57.80
2022-10-25T16:41:48.347Z,58.48
2022-10-25T16:44:20.306Z,58.83
2022-10-25T16:46:48.048Z,59.45
2022-10-25T16:49:15.320Z,59.48
2022-10-25T16:51:44.233Z,59.65
2022-10-25T16:54:12.709Z,59.44
2022-10-25T16:56:40.016Z,59.16
2022-10-25T16:59:07.876Z,58.76
2022-10-25T17:01:39.016Z,58.76
2022-10-25T17:04:10.406Z,58.97
2022-10-25T17:06:42.190Z,59.62
2022-10-25T17:09:11.248Z,59.31
2022-10-25T17:11:38.624Z,59.54
2022-10-25T17:14:06.497Z,59.35
2022-10-25T17:16:34.558Z,59.16
2022-10-25T17:19:03.904Z,59.73
2022-10-25T17:21:33.230Z,60.02
2022-10-25T17:24:00.641Z,60.15
2022-10-25T17:26:28.397Z,60.68
2022-10-25T17:28:57.615Z,60.83
2022-10-25T17:31:25.274Z,60.63
2022-10-25T17:33:52.539Z,61.40
2022-10-25T17:36:20.963Z,60.95
2022-10-25T17:38:48.485Z,61.60
2022-10-25T17:41:15.841Z,60.93
2022-10-25T17:43:43.253Z,61.44
2022-10-25T17:46:25.500Z,61.29
2022-10-25T17:49:03.712Z,61.21
2022-10-25T17:51:35.200Z,61.60
2022-10-25T17:54:02.661Z,61.34
2022-10-25T17:59:17.243Z,60.74
2022-10-25T18:01:44.692Z,60.54
2022-10-25T18:04:12.008Z,60.56
2022-10-25T18:06:39.645Z,61.04
2022-10-25T18:09:06.952Z,60.76
2022-10-25T18:11:34.234Z,60.80
2022-10-25T18:14:02.175Z,61.30
2022-10-25T18:16:31.124Z,61.65
2022-10-25T18:19:03.908Z,62.64
2022-10-25T18:21:33.324Z,62.72
2022-10-25T18:24:04.969Z,62.53
2022-10-25T18:26:34.836Z,63.10
2022-10-25T18:29:02.323Z,63.18
2022-10-25T18:31:30.663Z,63.36
2022-10-25T18:34:03.435Z,63.46
2022-10-25T18:36:32.633Z,63.62
2022-10-25T18:39:00.447Z,64.30
2022-10-25T18:41:34.089Z,63.87
2022-10-25T18:44:02.928Z,64.28
2022-10-25T18:46:31.890Z,64.21
2022-10-25T18:48:59.512Z,64.37
2022-10-25T18:51:28.957Z,64.93
2022-10-25T18:54:02.721Z,65.16
2022-10-25T18:56:31.000Z,65.27
2022-10-25T18:58:59.164Z,64.92
2022-10-25T19:01:32.130Z,64.81
2022-10-25T19:04:03.544Z,64.92
2022-10-25T19:06:32.772Z,65.33
2022-10-25T19:09:02.859Z,65.43
2022-10-25T19:11:30.539Z,66.14
2022-10-25T19:13:58.067Z,65.43
2022-10-25T19:16:25.660Z,65.64
2022-10-25T19:18:53.219Z,65.65
2022-10-25T19:21:20.513Z,65.64
2022-10-25T19:23:48.260Z,65.68
2022-10-25T19:26:20.687Z,65.47
2022-10-25T19:28:54.320Z,65.02
2022-10-25T19:31:21.653Z,65.29
2022-10-25T19:33:52.673Z,65.02
2022-10-25T19:36:20.679Z,65.72
2022-10-25T19:38:50.669Z,65.91
2022-10-25T19:41:23.471Z,66.01
2022-10-25T19:43:51.733Z,65.88
2022-10-25T19:46:19.644Z,66.49
2022-10-25T19:48:46.983Z,66.18
2022-10-25T19:51:19.797Z,65.98
2022-10-25T19:53:47.647Z,66.01
2022-10-25T19:56:23.722Z,66.68
2022-10-25T19:58:51.689Z,66.98
2022-10-25T20:01:28.615Z,67.86
2022-10-25T20:03:58.316Z,67.39
2022-10-25T20:06:31.566Z,67.98
2022-10-25T20:09:01.878Z,67.72
2022-10-25T20:11:29.758Z,67.68
2022-10-25T20:14:01.017Z,67.43
2022-10-25T20:16:29.643Z,68.39
2022-10-25T20:19:00.872Z,67.90
2022-10-25T20:21:36.823Z,67.89
2022-10-25T20:24:09.252Z,67.46
2022-10-25T20:26:41.243Z,67.91
2022-10-25T20:29:22.817Z,68.11
2022-10-25T20:31:52.398Z,67.17
2022-10-25T20:34:20.852Z,67.44
2022-10-25T20:36:49.050Z,67.31
2022-10-25T20:39:16.714Z,67.39
2022-10-25T20:41:46.735Z,67.12
2022-10-25T20:44:14.729Z,67.67
2022-10-25T20:46:42.275Z,67.54
2022-10-25T20:49:09.532Z,67.27
2022-10-25T20:51:37.980Z,67.55
2022-10-25T20:54:09.384Z,67.84
2022-10-25T20:56:37.358Z,67.74
2022-10-25T20:59:05.295Z,67.55
2022-10-25T21:01:32.696Z,67.90
2022-10-25T21:04:00.155Z,67.97
2022-10-25T21:06:27.433Z,68.32
2022-10-25T21:08:54.701Z,68.27
2022-10-25T21:11:22.048Z,68.11
2022-10-25T21:13:49.358Z,68.49
2022-10-25T21:16:17.355Z,67.95
2022-10-25T21:18:45.475Z,68.21
2022-10-25T21:21:19.813Z,68.63
2022-10-25T21:23:48.127Z,68.16
2022-10-25T21:26:15.780Z,67.98
2022-10-25T21:28:43.443Z,67.91
2022-10-25T21:31:15.539Z,68.35
2022-10-25T21:33:49.899Z,68.44
2022-10-25T21:36:20.557Z,68.19
2022-10-25T21:38:48.184Z,68.62
2022-10-25T21:41:26.787Z,68.42
2022-10-25T21:43:57.553Z,68.22
2022-10-25T21:46:27.713Z,68.23
2022-10-25T21:48:55.185Z,68.34
2022-10-25T21:51:24.455Z,67.74
2022-10-25T21:56:31.432Z,68.17
2022-10-25T21:59:00.236Z,68.19
2022-10-25T22:01:30.787Z,68.49
2022-10-25T22:03:58.428Z,68.65
2022-10-25T22:06:27.401Z,68.64
2022-10-25T22:08:56.309Z,68.38
2022-10-25T22:11:30.587Z,68.62
2022-10-25T22:14:03.449Z,68.52
2022-10-25T22:16:33.005Z,68.36
2022-10-25T22:19:12.283Z,68.55
2022-10-25T22:21:41.099Z,69.10
2022-10-25T22:24:11.764Z,69.57
2022-10-25T22:26:43.107Z,69.97
2022-10-25T22:29:13.803Z,69.58
2022-10-25T22:31:41.598Z,69.57
2022-10-25T22:34:10.726Z,69.55
2022-10-25T22:36:42.264Z,69.65
2022-10-25T22:39:10.161Z,69.21
2022-10-25T22:41:37.584Z,69.52
2022-10-25T22:44:05.966Z,69.16
2022-10-25T22:46:36.337Z,69.26
2022-10-25T22:49:09.248Z,68.86
2022-10-25T22:51:38.715Z,69.92
2022-10-25T22:54:06.339Z,70.29
2022-10-25T22:56:34.589Z,69.83
2022-10-25T22:59:05.544Z,69.95
2022-10-25T23:01:39.197Z,70.26
2022-10-25T23:04:09.602Z,70.21
2022-10-25T23:06:40.130Z,70.03
2022-10-25T23:09:11.052Z,70.00
2022-10-25T23:11:41.267Z,69.48
2022-10-25T23:14:13.411Z,69.48
2022-10-25T23:16:43.912Z,69.26
2022-10-25T23:19:11.209Z,68.76
2022-10-25T23:21:38.471Z,68.50
2022-10-25T23:24:07.212Z,68.87
2022-10-25T23:26:36.679Z,68.53
2022-10-25T23:29:05.025Z,69.39
2022-10-25T23:31:33.030Z,68.89
2022-10-25T23:34:01.874Z,69.37
2022-10-25T23:36:37.780Z,69.51
2022-10-25T23:39:07.717Z,69.84
2022-10-25T23:41:35.004Z,69.49
2022-10-25T23:44:02.454Z,69.62
2022-10-25T23:46:32.498Z,69.57
2022-10-25T23:48:59.760Z,69.34
2022-10-25T23:51:27.017Z,69.71
2022-10-25T23:53:54.264Z,69.49
2022-10-25T23:56:21.536Z,69.26
2022-10-25T23:58:53.395Z,69.37
